Bowling Green, Kentucky
Current Conditions -  °F | °C
As of 3:53 PM on Monday 20 Oct 2014 (Local Time) from KBWG Reporting Station
Clear Clear  
Wind Chill: 20°   Ceiling: Unl
Heat Index: 20°   Visibility: 10mi
Dew Point: 10°   Wind: 13mph
Humidity: 52%   Direction: 210°SSW
Pressure: 29.96"   Gusts: NA
Location:  36.99°N, 86.44°W
Report Text: KBWG 202053Z AUTO 21011KT 10SM CLR 20/10 A2996 RMK AO2 SLP142 T02000100 56018
Loading
Personal Weather Stations






























Interactive Weather Map New forecast layout! Learn more

10-Day Weather Forecast

Advertisements
Track Severe Weather on mobile